Time;durP1;ratioP1;P1;durP2;ratioP2;P2;SDS_P1;SDS_P2;PMS_P1;PMS_P2;Temp;Humidity;BMP_temperature;BMP_pressure;BME280_temperature;BME280_humidity;BME280_pressure;Samples;Min_cycle;Max_cycle;Signal;HPM_P1;HPM_P2
2023/03/21 00:01:14;;;;;;;17.63;7.45;;;;;;;10.85;62.31;94473.31;5031774;28;20327;-75
2023/03/21 00:03:42;;;;;;;12.50;6.60;;;;;;;10.64;63.12;94470.63;5031391;28;20631;-75
2023/03/21 00:06:11;;;;;;;17.80;6.07;;;;;;;10.57;63.48;94473.06;5018754;28;20302;-76
2023/03/21 00:09:05;;;;;;;19.13;7.72;;;;;;;10.30;64.42;94468.97;5032573;28;20200;-76
2023/03/21 00:11:34;;;;;;;11.38;6.63;;;;;;;10.08;64.84;94474.66;5022990;28;20208;-75
2023/03/21 00:14:01;;;;;;;16.23;6.82;;;;;;;10.13;65.16;94473.66;5031336;28;20683;-75
2023/03/21 00:16:29;;;;;;;16.42;6.97;;;;;;;10.17;63.88;94471.91;5031275;28;20208;-75
2023/03/21 00:18:57;;;;;;;13.68;7.28;;;;;;;10.10;64.61;94461.59;5030793;28;20244;-75
2023/03/21 00:21:27;;;;;;;13.35;7.03;;;;;;;10.18;65.58;94468.06;5031118;28;20299;-75
2023/03/21 00:23:54;;;;;;;16.33;7.68;;;;;;;10.35;64.36;94467.19;5030197;28;20242;-76
2023/03/21 00:26:22;;;;;;;14.55;7.22;;;;;;;10.35;63.97;94473.41;5030788;28;20204;-76
2023/03/21 00:28:50;;;;;;;16.15;7.47;;;;;;;10.41;63.90;94474.00;5030599;28;20196;-75
2023/03/21 00:31:17;;;;;;;19.45;8.65;;;;;;;10.37;64.06;94471.16;5032294;28;20200;-75
2023/03/21 00:33:45;;;;;;;16.20;8.30;;;;;;;10.32;64.37;94484.88;5031107;28;20211;-75
2023/03/21 00:36:12;;;;;;;19.35;8.77;;;;;;;10.36;64.61;94475.00;5030642;28;20201;-75
2023/03/21 00:38:39;;;;;;;19.90;7.85;;;;;;;10.32;64.58;94479.47;5030955;28;20216;-75
2023/03/21 00:41:08;;;;;;;18.52;8.07;;;;;;;10.16;65.44;94481.13;5031000;28;20283;-74
2023/03/21 00:43:36;;;;;;;20.85;8.77;;;;;;;10.15;65.79;94482.25;5030593;28;20243;-75
2023/03/21 00:46:05;;;;;;;15.20;7.75;;;;;;;10.10;66.22;94477.06;5030747;28;20215;-75
2023/03/21 00:48:32;;;;;;;15.30;8.18;;;;;;;10.15;66.51;94479.56;5031007;28;20204;-75
2023/03/21 00:50:59;;;;;;;16.25;7.78;;;;;;;10.16;66.00;94478.44;5030506;28;20250;-75
2023/03/21 00:53:26;;;;;;;19.23;9.30;;;;;;;10.11;65.99;94473.22;5030266;28;20192;-77
2023/03/21 00:55:53;;;;;;;17.70;7.68;;;;;;;10.04;66.81;94475.66;5030372;28;20204;-75
2023/03/21 00:58:20;;;;;;;16.25;7.55;;;;;;;10.05;67.01;94474.53;5030207;28;20659;-74
2023/03/21 01:00:48;;;;;;;17.02;7.65;;;;;;;10.04;67.45;94462.91;5030908;28;20209;-75
2023/03/21 01:03:16;;;;;;;20.60;9.48;;;;;;;10.07;67.28;94461.47;5030489;28;20228;-75
2023/03/21 01:06:04;;;;;;;17.77;8.55;;;;;;;10.02;66.83;94461.66;5029792;28;20832;-75
2023/03/21 01:08:32;;;;;;;15.60;8.20;;;;;;;9.92;66.95;94466.31;5030462;28;20201;-76
2023/03/21 01:11:02;;;;;;;15.23;8.13;;;;;;;9.84;67.50;94469.84;5029732;28;20208;-75
2023/03/21 01:13:29;;;;;;;20.95;9.48;;;;;;;9.73;67.42;94457.03;5030033;28;20294;-76
2023/03/21 01:15:57;;;;;;;18.92;7.68;;;;;;;9.66;67.74;94467.56;5030262;28;20278;-75
2023/03/21 01:18:28;;;;;;;19.88;9.43;;;;;;;9.64;68.22;94462.50;5029884;28;20279;-75
2023/03/21 01:20:57;;;;;;;18.08;8.38;;;;;;;9.68;67.69;94457.22;5029500;28;20201;-74
2023/03/21 01:23:24;;;;;;;17.40;8.45;;;;;;;9.59;67.75;94451.84;5029833;28;20229;-76
2023/03/21 01:25:52;;;;;;;17.73;8.70;;;;;;;9.53;68.69;94459.38;5029516;28;20228;-75
2023/03/21 01:28:19;;;;;;;20.23;9.52;;;;;;;9.51;69.43;94460.78;5029693;28;20663;-75
2023/03/21 01:30:47;;;;;;;17.65;7.85;;;;;;;9.48;68.50;94462.22;5030110;28;20200;-75
2023/03/21 01:33:15;;;;;;;17.98;8.15;;;;;;;9.48;69.18;94461.44;5029770;28;20605;-75
2023/03/21 01:35:43;;;;;;;15.88;7.20;;;;;;;9.43;68.71;94469.75;5030089;28;20211;-75
2023/03/21 01:38:10;;;;;;;17.80;7.95;;;;;;;9.42;68.90;94474.34;5029338;28;20562;-76
2023/03/21 01:40:37;;;;;;;16.02;8.63;;;;;;;9.42;68.97;94454.63;5029823;28;20201;-76
2023/03/21 01:43:21;;;;;;;19.35;7.85;;;;;;;9.45;68.80;94462.09;5029708;28;20204;-76
2023/03/21 01:46:20;;;;;;;15.10;7.28;;;;;;;9.48;68.67;94458.75;5029642;28;20250;-75
2023/03/21 01:48:51;;;;;;;13.45;7.85;;;;;;;9.43;69.26;94464.34;5024181;28;20254;-75
2023/03/21 01:51:21;;;;;;;15.82;7.80;;;;;;;9.45;69.17;94462.09;5029392;28;20614;-75
2023/03/21 01:53:49;;;;;;;14.18;7.57;;;;;;;9.49;69.07;94463.81;5029740;28;20209;-77
2023/03/21 01:56:20;;;;;;;13.25;6.90;;;;;;;9.37;69.75;94454.81;5029202;28;20200;-76
2023/03/21 01:58:47;;;;;;;18.30;7.90;;;;;;;9.24;69.71;94457.41;5029770;28;20208;-75
2023/03/21 02:01:15;;;;;;;13.00;6.28;;;;;;;9.20;69.36;94467.25;5029212;28;20212;-75
2023/03/21 02:03:50;;;;;;;13.05;6.80;;;;;;;9.17;69.60;94467.91;5029180;28;20589;-75
2023/03/21 02:06:29;;;;;;;17.10;7.88;;;;;;;9.18;69.57;94463.28;5016972;28;20749;-77
2023/03/21 02:08:58;;;;;;;18.25;6.82;;;;;;;9.06;69.86;94466.66;5028891;28;20214;-77
2023/03/21 02:11:26;;;;;;;14.52;7.32;;;;;;;9.07;69.87;94462.84;5028642;28;20637;-77
2023/03/21 02:13:53;;;;;;;16.27;6.70;;;;;;;9.03;69.25;94456.50;5028897;28;20311;-75
2023/03/21 02:16:29;;;;;;;13.82;7.47;;;;;;;9.06;69.31;94455.84;5028950;28;20278;-76
2023/03/21 02:19:05;;;;;;;13.38;6.55;;;;;;;9.12;68.89;94448.38;5029277;28;20605;-76
2023/03/21 02:22:09;;;;;;;14.82;6.85;;;;;;;9.10;68.80;94445.19;5028975;28;20660;-76
2023/03/21 02:25:01;;;;;;;17.33;6.57;;;;;;;9.11;68.72;94453.00;5029209;28;20247;-75
2023/03/21 02:27:32;;;;;;;11.07;5.72;;;;;;;9.07;69.27;94451.25;5017632;28;20212;-77
2023/03/21 02:30:34;;;;;;;12.75;7.00;;;;;;;9.03;69.10;94445.69;5028911;28;20254;-76
2023/03/21 02:33:34;;;;;;;17.13;6.80;;;;;;;8.88;69.75;94448.91;5023031;28;20606;-75
2023/03/21 02:36:17;;;;;;;14.07;6.70;;;;;;;8.71;71.15;94447.03;5015857;28;20212;-75
2023/03/21 02:38:49;;;;;;;11.10;6.32;;;;;;;8.76;71.45;94446.06;5016629;28;20295;-75
2023/03/21 02:41:21;;;;;;;13.50;7.03;;;;;;;8.83;70.97;94438.28;5028403;28;20713;-75
2023/03/21 02:43:55;;;;;;;13.88;6.22;;;;;;;8.86;70.47;94441.13;5028660;28;20302;-75
2023/03/21 02:46:33;;;;;;;13.70;6.53;;;;;;;8.88;69.59;94438.13;5028681;28;20203;-75
2023/03/21 02:49:06;;;;;;;15.45;7.53;;;;;;;8.55;71.84;94452.13;5028854;28;20280;-77
2023/03/21 02:51:35;;;;;;;14.70;6.53;;;;;;;8.46;72.36;94439.75;5028314;28;20722;-75
2023/03/21 02:54:07;;;;;;;14.27;7.28;;;;;;;8.51;72.55;94440.38;5028166;28;20207;-76
2023/03/21 02:56:35;;;;;;;16.20;7.40;;;;;;;8.43;72.47;94438.47;5028316;28;20204;-76
2023/03/21 02:59:04;;;;;;;15.38;7.25;;;;;;;8.14;74.28;94447.19;5028489;28;20219;-76
2023/03/21 03:01:31;;;;;;;14.00;7.43;;;;;;;8.20;73.57;94434.31;5028786;28;20212;-76
2023/03/21 03:03:57;;;;;;;14.70;6.35;;;;;;;8.18;73.87;94437.34;5028078;28;20232;-76
2023/03/21 03:06:29;;;;;;;12.23;6.35;;;;;;;8.25;74.67;94447.66;5028614;28;20200;-76
2023/03/21 03:09:20;;;;;;;12.00;6.85;;;;;;;8.34;73.99;94448.47;5028543;28;20308;-76
2023/03/21 03:11:49;;;;;;;16.25;7.07;;;;;;;8.47;75.20;94450.22;5028296;28;20212;-76
2023/03/21 03:14:41;;;;;;;15.52;7.65;;;;;;;8.49;74.12;94453.38;5016118;28;20239;-75
2023/03/21 03:17:19;;;;;;;13.77;7.25;;;;;;;8.47;72.46;94450.22;5028589;28;20258;-75
2023/03/21 03:19:59;;;;;;;16.95;6.78;;;;;;;8.35;72.89;94447.34;5028625;28;20204;-76
2023/03/21 03:22:31;;;;;;;14.95;6.65;;;;;;;8.37;74.46;94453.25;5017487;28;20295;-77
2023/03/21 03:25:03;;;;;;;16.60;7.10;;;;;;;8.37;76.08;94450.53;5029116;28;20329;-76
2023/03/21 03:27:35;;;;;;;17.40;7.80;;;;;;;8.38;76.14;94451.34;5028023;28;20203;-76
2023/03/21 03:30:06;;;;;;;16.30;7.15;;;;;;;8.41;75.36;94451.50;5027565;28;20291;-76
2023/03/21 03:32:38;;;;;;;12.90;6.68;;;;;;;8.42;75.13;94453.09;5027738;28;20296;-76
2023/03/21 03:35:06;;;;;;;17.05;8.00;;;;;;;8.36;74.70;94454.34;5027035;28;20246;-75
2023/03/21 03:37:36;;;;;;;13.10;7.13;;;;;;;8.24;73.82;94456.84;5027426;28;20204;-75
2023/03/21 03:40:09;;;;;;;15.73;7.22;;;;;;;8.10;74.10;94456.22;5027499;28;20232;-75
2023/03/21 03:42:38;;;;;;;13.20;6.50;;;;;;;8.03;74.20;94453.19;5027792;28;20233;-76
2023/03/21 03:45:06;;;;;;;12.70;6.78;;;;;;;7.94;74.05;94441.59;5008401;28;20637;-76
2023/03/21 03:47:38;;;;;;;10.68;6.45;;;;;;;7.90;73.47;94456.81;5021278;28;20262;-76
2023/03/21 03:50:12;;;;;;;14.82;7.05;;;;;;;7.77;73.98;94445.84;5027536;28;20610;-76
2023/03/21 03:52:43;;;;;;;16.98;6.13;;;;;;;7.68;74.05;94453.13;5027819;28;20674;-77
2023/03/21 03:55:14;;;;;;;16.33;6.57;;;;;;;7.65;74.02;94455.66;5027735;28;20258;-74
2023/03/21 03:57:41;;;;;;;15.27;6.38;;;;;;;7.64;74.70;94454.88;5027779;28;20201;-74
2023/03/21 04:00:11;;;;;;;12.88;6.25;;;;;;;7.57;75.60;94449.13;5027861;28;20262;-76
2023/03/21 04:02:38;;;;;;;9.82;5.28;;;;;;;7.58;74.76;94452.63;5027873;28;20200;-76
2023/03/21 04:05:06;;;;;;;9.13;5.03;;;;;;;7.69;73.90;94451.22;5027490;28;20773;-75
2023/03/21 04:07:33;;;;;;;8.80;5.57;;;;;;;7.62;74.62;94446.28;5028344;28;20254;-75
2023/03/21 04:10:00;;;;;;;10.15;5.32;;;;;;;7.53;75.05;94447.34;5027820;28;20232;-75
2023/03/21 04:12:28;;;;;;;13.13;6.05;;;;;;;7.51;75.80;94449.59;5027709;28;20620;-76
2023/03/21 04:14:54;;;;;;;13.00;4.82;;;;;;;7.36;76.45;94446.22;5027949;28;20359;-77
2023/03/21 04:17:21;;;;;;;10.07;5.65;;;;;;;7.46;76.34;94450.53;5028043;28;20216;-76
2023/03/21 04:19:50;;;;;;;12.13;5.32;;;;;;;7.53;76.29;94442.75;5027519;28;20984;-76
2023/03/21 04:22:17;;;;;;;9.77;4.75;;;;;;;7.52;75.82;94441.16;5027533;28;20196;-76
2023/03/21 04:24:44;;;;;;;10.18;5.57;;;;;;;7.52;75.09;94441.16;5027440;28;20240;-75
2023/03/21 04:27:10;;;;;;;10.75;5.30;;;;;;;7.35;75.83;94441.94;5027603;28;20213;-75
2023/03/21 04:29:39;;;;;;;15.40;6.40;;;;;;;7.38;76.71;94440.53;5027343;28;20208;-78
2023/03/21 04:32:18;;;;;;;11.95;6.30;;;;;;;7.41;77.06;94434.47;5025779;28;20205;-75
2023/03/21 04:34:48;;;;;;;11.07;5.72;;;;;;;7.53;78.08;94431.19;5027540;28;20205;-76
2023/03/21 04:37:15;;;;;;;12.02;6.10;;;;;;;7.67;78.20;94443.44;5026992;28;20283;-76
2023/03/21 04:39:42;;;;;;;14.52;7.80;;;;;;;7.77;77.62;94442.38;5028318;28;20215;-76
2023/03/21 04:42:09;;;;;;;12.93;6.88;;;;;;;7.85;77.08;94439.69;5030668;28;20266;-76
2023/03/21 04:44:36;;;;;;;21.88;9.40;;;;;;;7.96;76.02;94444.75;5029956;28;21521;-76
2023/03/21 04:47:04;;;;;;;15.50;6.70;;;;;;;7.97;75.61;94446.34;5030963;28;20508;-76
2023/03/21 04:49:31;;;;;;;12.43;6.13;;;;;;;8.08;75.08;94447.63;5030406;28;20200;-75
2023/03/21 04:51:58;;;;;;;12.23;5.53;;;;;;;8.26;74.47;94443.84;5029081;28;20308;-76
2023/03/21 04:54:24;;;;;;;12.43;5.53;;;;;;;8.58;73.97;94445.31;5029998;28;20203;-76
2023/03/21 04:56:51;;;;;;;11.65;6.10;;;;;;;8.67;73.64;94451.47;5030311;28;20200;-77
2023/03/21 04:59:20;;;;;;;13.85;5.68;;;;;;;8.95;71.06;94449.22;5014976;28;20263;-78
2023/03/21 05:01:48;;;;;;;9.57;6.18;;;;;;;9.21;70.95;94447.22;5021389;28;20201;-77
2023/03/21 05:04:17;;;;;;;11.77;6.50;;;;;;;9.49;69.45;94441.41;5029501;28;20675;-76
2023/03/21 05:06:45;;;;;;;11.02;5.45;;;;;;;9.60;68.13;94442.63;5029526;28;20203;-76
2023/03/21 05:09:13;;;;;;;10.95;6.28;;;;;;;9.61;68.96;94444.19;5029704;28;20251;-76
2023/03/21 05:11:40;;;;;;;37.70;7.30;;;;;;;9.57;68.63;94437.84;5029501;28;20211;-77
2023/03/21 05:14:10;;;;;;;24.20;6.47;;;;;;;9.58;69.24;94444.84;5030568;28;20212;-75
2023/03/21 05:16:47;;;;;;;16.33;6.53;;;;;;;9.50;69.63;94449.19;5029988;28;20204;-78
2023/03/21 05:19:14;;;;;;;30.13;13.27;;;;;;;9.54;69.42;94455.53;5030973;28;20215;-77
2023/03/21 05:21:43;;;;;;;14.73;6.95;;;;;;;9.60;69.09;94445.31;5030360;28;20220;-77
2023/03/21 05:24:14;;;;;;;15.38;6.75;;;;;;;9.60;69.03;94442.63;5030690;28;20271;-78
2023/03/21 05:26:42;;;;;;;17.63;7.20;;;;;;;9.93;68.18;94456.28;5023902;28;20510;-77
2023/03/21 05:29:10;;;;;;;14.52;6.43;;;;;;;9.93;69.00;94451.69;5029739;28;20204;-78
2023/03/21 05:31:51;;;;;;;15.05;7.85;;;;;;;10.06;68.38;94446.34;5026739;28;20200;-78
2023/03/21 05:34:18;;;;;;;13.30;7.10;;;;;;;10.05;68.07;94455.59;5021551;28;20311;-77
2023/03/21 05:36:46;;;;;;;12.68;6.93;;;;;;;10.24;67.97;94450.56;5029562;28;20215;-77
2023/03/21 05:39:12;;;;;;;26.48;7.57;;;;;;;10.34;67.70;94450.16;5029810;28;20204;-78
2023/03/21 05:41:44;;;;;;;19.77;8.73;;;;;;;10.45;67.37;94451.34;5030006;28;20614;-78
2023/03/21 05:44:11;;;;;;;19.25;7.50;;;;;;;10.69;66.40;94451.44;5029707;28;20204;-77
2023/03/21 05:46:40;;;;;;;13.52;7.45;;;;;;;11.03;65.48;94444.13;5030035;28;20236;-77
2023/03/21 05:49:07;;;;;;;22.05;7.18;;;;;;;11.34;65.17;94438.22;5029283;28;20199;-77
2023/03/21 05:51:33;;;;;;;16.65;7.28;;;;;;;11.60;63.80;94440.63;5028878;28;20648;-77
2023/03/21 05:54:02;;;;;;;25.02;9.73;;;;;;;12.06;63.01;94437.47;5029197;28;20262;-77
2023/03/21 05:56:30;;;;;;;19.65;7.10;;;;;;;13.00;60.21;94430.84;5028962;28;20821;-78
2023/03/21 05:58:57;;;;;;;16.40;7.32;;;;;;;13.65;57.50;94421.31;5029342;28;20211;-77
2023/03/21 06:01:24;;;;;;;19.95;8.18;;;;;;;14.04;57.38;94419.50;5029553;28;20275;-78
2023/03/21 06:03:51;;;;;;;21.48;7.95;;;;;;;13.88;56.42;94405.13;5030075;28;20204;-78
2023/03/21 06:06:18;;;;;;;27.30;9.93;;;;;;;13.82;56.51;94412.75;5029604;28;20235;-77
2023/03/21 06:08:44;;;;;;;24.10;8.05;;;;;;;13.52;57.38;94412.44;5029870;28;20200;-78
2023/03/21 06:11:23;;;;;;;17.25;7.80;;;;;;;13.65;56.11;94407.69;5029059;28;20200;-78
2023/03/21 06:13:49;;;;;;;25.15;8.60;;;;;;;13.71;56.53;94398.09;5029477;28;20235;-78
2023/03/21 06:16:16;;;;;;;31.67;7.93;;;;;;;13.89;56.32;94401.25;5028302;28;20201;-78
2023/03/21 06:18:43;;;;;;;24.98;8.48;;;;;;;13.84;56.25;94396.06;5029203;28;20200;-77
2023/03/21 06:21:10;;;;;;;22.95;7.82;;;;;;;13.98;57.04;94404.56;5028945;28;20247;-77
2023/03/21 06:23:36;;;;;;;20.60;9.05;;;;;;;14.06;56.70;94390.00;5028965;28;20405;-78
2023/03/21 06:26:03;;;;;;;31.77;9.90;;;;;;;14.03;57.18;94401.59;5028793;28;20235;-79
2023/03/21 06:28:31;;;;;;;20.52;9.65;;;;;;;14.23;59.04;94386.84;5028786;28;20208;-77
2023/03/21 06:30:58;;;;;;;12.80;6.43;;;;;;;14.36;64.86;94398.41;5028848;28;20208;-77
2023/03/21 06:33:25;;;;;;;10.85;6.88;;;;;;;14.19;58.40;94388.72;5028923;28;20204;-78
2023/03/21 06:35:53;;;;;;;18.60;8.13;;;;;;;13.77;54.53;94394.00;5029130;28;20287;-78
2023/03/21 06:38:20;;;;;;;22.45;10.32;;;;;;;13.09;56.87;94407.03;5028526;28;20614;-79
2023/03/21 06:40:47;;;;;;;21.45;9.10;;;;;;;13.38;55.99;94403.94;5028703;28;20200;-78
2023/03/21 06:43:15;;;;;;;17.77;8.95;;;;;;;13.56;56.33;94404.34;5028749;28;20200;-77
2023/03/21 06:45:44;;;;;;;15.55;7.78;;;;;;;13.63;54.83;94409.19;5028175;28;20234;-77
2023/03/21 06:48:10;;;;;;;15.82;8.70;;;;;;;13.47;55.26;94406.47;5028139;28;20736;-79
2023/03/21 06:50:37;;;;;;;21.40;9.30;;;;;;;13.26;55.33;94417.56;5028120;28;20197;-78
2023/03/21 06:53:04;;;;;;;16.80;7.78;;;;;;;13.43;55.37;94417.25;5027847;28;20288;-78
2023/03/21 06:55:31;;;;;;;21.38;7.32;;;;;;;14.03;53.80;94412.47;5028485;28;20204;-78
2023/03/21 06:57:58;;;;;;;21.10;9.63;;;;;;;14.50;53.16;94414.31;5028159;28;20261;-77
2023/03/21 07:00:25;;;;;;;14.90;7.30;;;;;;;14.79;51.34;94416.47;5028082;28;20200;-79
2023/03/21 07:02:53;;;;;;;17.13;8.02;;;;;;;15.03;51.00;94415.41;5028077;28;20200;-78
2023/03/21 07:05:20;;;;;;;23.77;7.10;;;;;;;15.12;50.99;94417.91;5028230;28;20232;-79
2023/03/21 07:07:47;;;;;;;15.80;7.13;;;;;;;16.29;48.74;94415.19;5027941;28;20201;-77
2023/03/21 07:10:14;;;;;;;13.48;6.63;;;;;;;17.00;47.18;94410.69;5028290;28;20210;-79
2023/03/21 07:12:41;;;;;;;17.38;8.27;;;;;;;16.61;46.08;94420.31;5028051;28;20258;-79
2023/03/21 07:15:09;;;;;;;13.77;6.35;;;;;;;16.01;46.55;94409.28;5028532;28;20679;-78
2023/03/21 07:17:36;;;;;;;12.35;7.80;;;;;;;15.32;48.63;94413.97;5015206;28;20208;-79
2023/03/21 07:20:07;;;;;;;11.27;7.85;;;;;;;15.21;48.68;94421.16;5028317;28;20773;-79
2023/03/21 07:22:35;;;;;;;13.75;8.30;;;;;;;15.04;49.20;94427.06;5028776;28;20224;-79
2023/03/21 07:25:01;;;;;;;14.80;8.27;;;;;;;15.12;49.54;94429.59;5027776;28;20711;-80
2023/03/21 07:27:28;;;;;;;16.25;8.77;;;;;;;15.43;49.13;94417.69;5027995;28;20208;-80
2023/03/21 07:29:55;;;;;;;13.45;8.63;;;;;;;15.53;48.60;94414.34;5027967;28;20223;-80
2023/03/21 07:32:21;;;;;;;14.70;8.82;;;;;;;15.29;49.19;94428.34;5028177;28;20204;-80
2023/03/21 07:34:48;;;;;;;17.48;9.40;;;;;;;15.44;48.41;94410.28;5027796;28;20230;-80
2023/03/21 07:37:16;;;;;;;15.25;8.40;;;;;;;15.41;48.63;94417.28;5027499;28;20203;-80
2023/03/21 07:39:43;;;;;;;15.77;8.98;;;;;;;15.16;49.69;94416.03;5027560;28;20204;-80
2023/03/21 07:42:10;;;;;;;17.25;9.10;;;;;;;14.86;49.26;94416.63;5027344;28;20307;-80
2023/03/21 07:44:37;;;;;;;14.38;9.05;;;;;;;14.98;49.38;94412.16;5027326;28;20865;-79
2023/03/21 07:47:04;;;;;;;15.45;8.32;;;;;;;15.48;47.89;94402.94;5027060;28;20286;-79
2023/03/21 07:49:31;;;;;;;17.60;8.15;;;;;;;15.96;46.99;94404.16;5027320;28;20221;-79
2023/03/21 07:51:58;;;;;;;15.95;8.90;;;;;;;15.85;47.07;94416.88;5027815;28;20195;-79
2023/03/21 07:54:27;;;;;;;14.90;9.10;;;;;;;15.27;47.81;94419.75;5027635;28;20215;-79
2023/03/21 07:56:54;;;;;;;15.65;9.23;;;;;;;15.55;48.17;94420.28;5027413;28;20205;-79
2023/03/21 07:59:21;;;;;;;16.83;9.85;;;;;;;15.62;47.23;94422.31;5027836;28;20239;-79
2023/03/21 08:01:47;;;;;;;14.57;8.18;;;;;;;16.31;46.15;94412.88;5027743;28;20769;-79
2023/03/21 08:04:14;;;;;;;17.35;9.27;;;;;;;15.83;45.91;94416.44;5027568;28;20685;-79
2023/03/21 08:06:41;;;;;;;16.90;8.90;;;;;;;15.57;47.09;94422.66;5027314;28;20232;-79
2023/03/21 08:09:08;;;;;;;17.95;9.90;;;;;;;14.98;47.99;94423.06;5027635;28;20224;-78
2023/03/21 08:11:36;;;;;;;24.52;10.18;;;;;;;14.92;48.28;94420.63;5027516;28;20287;-79
2023/03/21 08:14:03;;;;;;;18.85;9.70;;;;;;;15.45;48.39;94426.28;5028688;28;20657;-80
2023/03/21 08:16:30;;;;;;;23.45;10.80;;;;;;;15.54;47.83;94424.13;5031040;28;20625;-79
2023/03/21 08:18:56;;;;;;;17.17;10.02;;;;;;;15.70;47.19;94421.31;5030876;28;20212;-79
2023/03/21 08:21:25;;;;;;;16.23;9.90;;;;;;;15.81;47.03;94410.56;5031167;28;20204;-79
2023/03/21 08:23:53;;;;;;;18.60;10.43;;;;;;;15.73;46.93;94403.38;5031594;28;20242;-79
2023/03/21 08:26:20;;;;;;;17.40;10.82;;;;;;;15.51;46.96;94405.75;5031218;28;20653;-78
2023/03/21 08:28:48;;;;;;;21.50;11.10;;;;;;;15.46;47.30;94397.84;5031631;28;20202;-79
2023/03/21 08:31:16;;;;;;;17.17;9.82;;;;;;;15.24;47.19;94402.13;5031306;28;20247;-78
2023/03/21 08:33:43;;;;;;;23.95;9.50;;;;;;;15.20;47.72;94408.69;5030732;28;20722;-79
2023/03/21 08:36:11;;;;;;;20.75;9.35;;;;;;;15.21;46.92;94399.34;5031149;28;20211;-79
2023/03/21 08:38:38;;;;;;;18.88;9.30;;;;;;;15.22;46.78;94411.84;5030654;28;20568;-79
2023/03/21 08:41:05;;;;;;;22.63;10.57;;;;;;;15.41;46.83;94414.53;5030784;28;20204;-77
2023/03/21 08:43:32;;;;;;;19.08;10.52;;;;;;;15.76;46.32;94405.38;5031242;28;20208;-79
2023/03/21 08:46:03;;;;;;;18.13;10.10;;;;;;;16.19;45.98;94399.44;5030412;28;20228;-79
2023/03/21 08:48:29;;;;;;;18.13;10.27;;;;;;;16.23;45.01;94405.75;5031295;28;20204;-80
2023/03/21 08:50:56;;;;;;;18.75;11.70;;;;;;;16.08;45.35;94403.97;5030850;28;20205;-82
2023/03/21 08:53:23;;;;;;;24.02;10.15;;;;;;;16.07;45.61;94396.91;5030220;28;20216;-79
2023/03/21 08:55:50;;;;;;;23.63;11.27;;;;;;;16.42;45.41;94407.56;5030304;28;20208;-79
2023/03/21 08:58:17;;;;;;;16.83;10.40;;;;;;;16.35;44.74;94399.25;5030321;28;20254;-78
2023/03/21 09:00:44;;;;;;;16.52;9.88;;;;;;;15.99;44.60;94395.22;5030416;28;20262;-78
2023/03/21 09:03:12;;;;;;;14.40;8.65;;;;;;;16.08;44.30;94387.56;5030768;28;20204;-78
2023/03/21 09:05:39;;;;;;;21.85;10.60;;;;;;;16.53;44.42;94396.78;5030630;28;20200;-79
2023/03/21 09:08:06;;;;;;;16.95;9.77;;;;;;;16.33;44.17;94398.84;5030685;28;20591;-80
2023/03/21 09:10:33;;;;;;;19.52;9.57;;;;;;;16.30;44.13;94394.91;5029890;28;20613;-79
2023/03/21 09:13:00;;;;;;;13.80;8.75;;;;;;;16.20;44.09;94384.59;5030392;28;20232;-79
2023/03/21 09:15:28;;;;;;;14.13;9.20;;;;;;;16.13;44.53;94383.69;5029838;28;20204;-79
2023/03/21 09:17:57;;;;;;;14.60;8.30;;;;;;;16.23;44.17;94388.56;5030031;28;20207;-80
2023/03/21 09:20:29;;;;;;;16.95;9.35;;;;;;;16.60;43.12;94381.25;5029742;28;20200;-81
2023/03/21 09:22:57;;;;;;;20.63;9.60;;;;;;;16.54;43.48;94379.19;5030053;28;20204;-80
2023/03/21 09:25:24;;;;;;;18.08;8.07;;;;;;;16.28;43.45;94358.94;5028927;28;20236;-78
2023/03/21 09:27:52;;;;;;;16.33;7.65;;;;;;;16.81;42.35;94369.03;5029577;28;20777;-78
2023/03/21 09:30:20;;;;;;;13.32;7.43;;;;;;;17.03;41.26;94360.66;5029889;28;20262;-78
2023/03/21 09:32:48;;;;;;;12.15;7.75;;;;;;;17.82;40.44;94356.72;5029903;28;20259;-78
2023/03/21 09:35:15;;;;;;;18.42;7.93;;;;;;;18.24;39.86;94356.22;5029174;28;20652;-80
2023/03/21 09:37:44;;;;;;;11.30;7.55;;;;;;;18.24;39.14;94350.75;5029621;28;20236;-80
2023/03/21 09:40:18;;;;;;;13.25;8.30;;;;;;;18.48;38.84;94344.59;5029724;28;20204;-80
2023/03/21 09:42:55;;;;;;;14.02;7.97;;;;;;;18.29;38.79;94333.94;5030001;28;20200;-80
2023/03/21 09:45:33;;;;;;;14.75;8.93;;;;;;;17.87;39.71;94325.44;5030005;28;20200;-79
2023/03/21 09:48:00;;;;;;;14.75;8.75;;;;;;;17.97;39.68;94335.69;5027722;28;20281;-80
2023/03/21 09:50:31;;;;;;;16.25;8.02;;;;;;;18.16;39.54;94337.38;5029299;28;20204;-79
2023/03/21 09:53:04;;;;;;;18.70;9.10;;;;;;;18.74;39.28;94334.53;5029061;28;20196;-80
2023/03/21 09:55:33;;;;;;;17.00;9.48;;;;;;;18.84;39.28;94328.31;5028980;28;20213;-77
2023/03/21 09:58:06;;;;;;;13.52;9.20;;;;;;;18.65;39.29;94332.16;5029076;28;20236;-79
2023/03/21 10:00:36;;;;;;;14.32;8.70;;;;;;;18.75;38.85;94331.41;5028956;28;20738;-81
2023/03/21 10:03:09;;;;;;;17.42;9.10;;;;;;;19.10;38.16;94330.75;5029680;28;20205;-79
2023/03/21 10:05:43;;;;;;;19.50;9.57;;;;;;;19.13;38.11;94324.47;5029284;28;20341;-79
2023/03/21 10:08:16;;;;;;;16.90;9.65;;;;;;;18.49;38.72;94326.19;5029803;28;20235;-78
2023/03/21 10:10:47;;;;;;;22.67;10.68;;;;;;;17.67;40.04;94325.69;5029486;28;20193;-79
2023/03/21 10:13:16;;;;;;;15.13;10.10;;;;;;;18.05;39.66;94312.63;5029228;28;20216;-78
2023/03/21 10:15:43;;;;;;;18.40;9.70;;;;;;;17.64;40.51;94318.22;5029179;28;20204;-78
2023/03/21 10:18:18;;;;;;;16.35;10.13;;;;;;;18.29;39.78;94303.78;5029013;28;20270;-79
2023/03/21 10:20:46;;;;;;;20.88;10.77;;;;;;;17.99;39.18;94305.94;5015758;28;20200;-79
2023/03/21 10:23:21;;;;;;;20.10;12.15;;;;;;;18.42;39.65;94294.03;5028192;28;20667;-79
2023/03/21 10:25:55;;;;;;;22.48;12.25;;;;;;;18.38;39.30;94301.44;5028597;28;20277;-78
2023/03/21 10:28:28;;;;;;;20.77;12.88;;;;;;;18.17;40.28;94301.38;5028882;28;20225;-79
2023/03/21 10:30:59;;;;;;;19.52;11.68;;;;;;;17.92;40.79;94311.38;5019206;28;20265;-80
2023/03/21 10:33:33;;;;;;;25.48;13.02;;;;;;;17.84;40.63;94302.31;5028395;28;20290;-78
2023/03/21 10:36:05;;;;;;;20.08;12.02;;;;;;;18.03;40.60;94304.03;5028453;28;20211;-80
2023/03/21 10:38:35;;;;;;;18.35;10.82;;;;;;;18.36;39.01;94309.28;5028227;28;20208;-79
2023/03/21 10:41:02;;;;;;;15.93;9.50;;;;;;;18.37;38.81;94313.59;5028795;28;20211;-80
2023/03/21 10:43:39;;;;;;;20.02;10.93;;;;;;;18.52;38.90;94311.69;5028303;28;20208;-82
2023/03/21 10:46:09;;;;;;;24.70;11.20;;;;;;;18.04;39.79;94309.09;5028804;28;20699;-80
2023/03/21 10:48:44;;;;;;;20.58;11.55;;;;;;;18.14;39.42;94313.09;5028580;28;20262;-80
2023/03/21 10:51:18;;;;;;;22.05;11.18;;;;;;;18.29;39.36;94303.78;5028286;28;20214;-80
2023/03/21 10:53:51;;;;;;;19.38;11.23;;;;;;;18.38;39.87;94309.69;5029424;28;20204;-82
2023/03/21 10:56:22;;;;;;;26.35;12.27;;;;;;;18.01;40.26;94303.63;5028789;28;20212;-81
2023/03/21 10:58:51;;;;;;;19.67;10.25;;;;;;;17.74;40.02;94295.63;5028470;28;20205;-80
2023/03/21 11:01:29;;;;;;;19.90;10.93;;;;;;;17.93;40.02;94282.78;5015181;28;20204;-81
2023/03/21 11:03:58;;;;;;;19.77;11.07;;;;;;;17.87;40.33;94287.88;5028380;28;20777;-82
2023/03/21 11:06:29;;;;;;;17.55;10.30;;;;;;;17.71;40.03;94279.94;5027914;28;20212;-80
2023/03/21 11:09:03;;;;;;;17.98;10.07;;;;;;;17.94;39.99;94284.38;5028274;28;20687;-81
2023/03/21 11:11:36;;;;;;;11.68;8.82;;;;;;;17.82;39.12;94279.22;5028311;28;20215;-81
2023/03/21 11:14:06;;;;;;;12.82;9.00;;;;;;;18.44;39.13;94275.25;5027927;28;20232;-81
2023/03/21 11:16:38;;;;;;;14.73;8.93;;;;;;;19.33;38.24;94277.41;5027693;28;20292;-81
2023/03/21 11:19:14;;;;;;;14.55;8.35;;;;;;;19.80;36.21;94268.81;5027744;28;20208;-78
2023/03/21 11:21:41;;;;;;;13.27;8.52;;;;;;;19.35;36.78;94269.56;5027982;28;20218;-79
2023/03/21 11:24:15;;;;;;;15.10;9.68;;;;;;;19.18;37.51;94271.13;5027106;28;20232;-79
2023/03/21 11:26:44;;;;;;;18.67;11.23;;;;;;;19.20;36.92;94263.28;5027956;28;20220;-79
2023/03/21 11:29:25;;;;;;;15.30;8.27;;;;;;;18.37;37.78;94266.97;5027672;28;20196;-80
2023/03/21 11:31:52;;;;;;;11.35;6.93;;;;;;;18.86;37.35;94249.09;5027944;28;20262;-79
2023/03/21 11:34:26;;;;;;;15.43;8.95;;;;;;;18.96;37.08;94247.56;5027783;28;20386;-79
2023/03/21 11:36:59;;;;;;;8.57;6.30;;;;;;;18.92;36.53;94247.56;5027822;28;20585;-79
2023/03/21 11:39:38;;;;;;;8.50;6.50;;;;;;;18.34;37.62;94245.78;5027747;28;20679;-79